sensor_id;sensor_type;location;lat;lon;timestamp;temperature;humidity
52889;DHT22;41413;52.770;6.892;2023-07-31T00:01:31;15.90;99.90
52889;DHT22;41413;52.770;6.892;2023-07-31T00:03:58;15.90;99.90
52889;DHT22;41413;52.770;6.892;2023-07-31T00:06:25;15.80;99.90
52889;DHT22;41413;52.770;6.892;2023-07-31T00:08:52;15.90;99.90
52889;DHT22;41413;52.770;6.892;2023-07-31T00:11:19;15.90;99.90
52889;DHT22;41413;52.770;6.892;2023-07-31T00:13:45;15.90;99.90
52889;DHT22;41413;52.770;6.892;2023-07-31T00:16:12;15.90;99.90
52889;DHT22;41413;52.770;6.892;2023-07-31T00:18:39;15.90;99.90
52889;DHT22;41413;52.770;6.892;2023-07-31T00:21:06;15.90;99.90
52889;DHT22;41413;52.770;6.892;2023-07-31T00:23:32;15.90;99.90
52889;DHT22;41413;52.770;6.892;2023-07-31T00:26:00;15.90;99.90
52889;DHT22;41413;52.770;6.892;2023-07-31T00:28:27;15.80;99.90
52889;DHT22;41413;52.770;6.892;2023-07-31T00:30:55;15.90;99.90
52889;DHT22;41413;52.770;6.892;2023-07-31T00:33:22;15.80;99.90
52889;DHT22;41413;52.770;6.892;2023-07-31T00:35:49;15.80;99.90
52889;DHT22;41413;52.770;6.892;2023-07-31T00:38:15;15.80;99.90
52889;DHT22;41413;52.770;6.892;2023-07-31T00:40:45;15.80;99.90
52889;DHT22;41413;52.770;6.892;2023-07-31T00:43:12;15.80;99.90
52889;DHT22;41413;52.770;6.892;2023-07-31T00:45:39;15.70;99.90
52889;DHT22;41413;52.770;6.892;2023-07-31T00:48:06;15.80;99.90
52889;DHT22;41413;52.770;6.892;2023-07-31T00:50:33;15.70;99.90
52889;DHT22;41413;52.770;6.892;2023-07-31T00:53:01;15.60;99.90
52889;DHT22;41413;52.770;6.892;2023-07-31T00:55:29;15.70;99.90
52889;DHT22;41413;52.770;6.892;2023-07-31T00:57:56;15.60;99.90
52889;DHT22;41413;52.770;6.892;2023-07-31T01:00:23;15.60;99.90
52889;DHT22;41413;52.770;6.892;2023-07-31T01:02:51;15.70;99.90
52889;DHT22;41413;52.770;6.892;2023-07-31T01:05:29;15.70;99.90
52889;DHT22;41413;52.770;6.892;2023-07-31T01:08:11;15.60;99.90
52889;DHT22;41413;52.770;6.892;2023-07-31T01:10:51;15.60;99.90
52889;DHT22;41413;52.770;6.892;2023-07-31T01:13:21;15.60;99.90
52889;DHT22;41413;52.770;6.892;2023-07-31T01:15:48;15.60;99.90
52889;DHT22;41413;52.770;6.892;2023-07-31T01:18:15;15.60;99.90
52889;DHT22;41413;52.770;6.892;2023-07-31T01:20:42;15.40;99.90
52889;DHT22;41413;52.770;6.892;2023-07-31T01:25:55;15.50;99.90
52889;DHT22;41413;52.770;6.892;2023-07-31T01:31:10;15.50;99.90
52889;DHT22;41413;52.770;6.892;2023-07-31T01:33:39;15.50;99.90
52889;DHT22;41413;52.770;6.892;2023-07-31T01:36:06;15.50;99.90
52889;DHT22;41413;52.770;6.892;2023-07-31T01:38:34;15.50;99.90
52889;DHT22;41413;52.770;6.892;2023-07-31T01:41:00;15.50;99.90
52889;DHT22;41413;52.770;6.892;2023-07-31T01:43:27;15.40;99.90
52889;DHT22;41413;52.770;6.892;2023-07-31T01:45:54;15.30;99.90
52889;DHT22;41413;52.770;6.892;2023-07-31T01:48:21;15.40;99.90
52889;DHT22;41413;52.770;6.892;2023-07-31T01:50:47;15.40;99.90
52889;DHT22;41413;52.770;6.892;2023-07-31T01:53:14;15.50;99.90
52889;DHT22;41413;52.770;6.892;2023-07-31T01:55:41;15.40;99.90
52889;DHT22;41413;52.770;6.892;2023-07-31T01:58:08;15.40;99.90
52889;DHT22;41413;52.770;6.892;2023-07-31T02:00:35;15.40;99.90
52889;DHT22;41413;52.770;6.892;2023-07-31T02:03:01;15.40;99.90
52889;DHT22;41413;52.770;6.892;2023-07-31T02:05:28;15.30;99.90
52889;DHT22;41413;52.770;6.892;2023-07-31T02:07:55;15.40;99.90
52889;DHT22;41413;52.770;6.892;2023-07-31T02:10:22;15.40;99.90
52889;DHT22;41413;52.770;6.892;2023-07-31T02:12:48;15.30;99.90
52889;DHT22;41413;52.770;6.892;2023-07-31T02:15:15;15.30;99.90
52889;DHT22;41413;52.770;6.892;2023-07-31T02:17:42;15.40;99.90
52889;DHT22;41413;52.770;6.892;2023-07-31T02:20:09;15.40;99.90
52889;DHT22;41413;52.770;6.892;2023-07-31T02:22:36;15.40;99.90
52889;DHT22;41413;52.770;6.892;2023-07-31T02:25:03;15.40;99.90
52889;DHT22;41413;52.770;6.892;2023-07-31T02:27:30;15.40;99.90
52889;DHT22;41413;52.770;6.892;2023-07-31T02:29:56;15.40;99.90
52889;DHT22;41413;52.770;6.892;2023-07-31T02:32:25;15.40;99.90
52889;DHT22;41413;52.770;6.892;2023-07-31T02:34:52;15.40;99.90
52889;DHT22;41413;52.770;6.892;2023-07-31T02:37:19;15.40;99.90
52889;DHT22;41413;52.770;6.892;2023-07-31T02:39:46;15.40;99.90
52889;DHT22;41413;52.770;6.892;2023-07-31T02:42:13;15.40;99.90
52889;DHT22;41413;52.770;6.892;2023-07-31T02:44:40;15.40;99.90
52889;DHT22;41413;52.770;6.892;2023-07-31T02:47:07;15.50;99.90
52889;DHT22;41413;52.770;6.892;2023-07-31T02:49:33;15.40;99.90
52889;DHT22;41413;52.770;6.892;2023-07-31T02:52:00;15.40;99.90
52889;DHT22;41413;52.770;6.892;2023-07-31T02:54:27;15.50;99.90
52889;DHT22;41413;52.770;6.892;2023-07-31T02:56:53;15.50;99.90
52889;DHT22;41413;52.770;6.892;2023-07-31T02:59:20;15.50;99.90
52889;DHT22;41413;52.770;6.892;2023-07-31T03:01:47;15.50;99.90
52889;DHT22;41413;52.770;6.892;2023-07-31T03:04:14;15.50;99.90
52889;DHT22;41413;52.770;6.892;2023-07-31T03:06:44;15.50;99.90
52889;DHT22;41413;52.770;6.892;2023-07-31T03:09:10;15.50;99.90
52889;DHT22;41413;52.770;6.892;2023-07-31T03:11:37;15.60;99.90
52889;DHT22;41413;52.770;6.892;2023-07-31T03:14:04;15.60;99.90
52889;DHT22;41413;52.770;6.892;2023-07-31T03:16:31;15.60;99.90
52889;DHT22;41413;52.770;6.892;2023-07-31T03:18:57;15.60;99.90
52889;DHT22;41413;52.770;6.892;2023-07-31T03:21:24;15.50;99.90
52889;DHT22;41413;52.770;6.892;2023-07-31T03:23:51;15.50;99.90
52889;DHT22;41413;52.770;6.892;2023-07-31T03:26:18;15.60;99.90
52889;DHT22;41413;52.770;6.892;2023-07-31T03:28:44;15.50;99.90
52889;DHT22;41413;52.770;6.892;2023-07-31T03:31:11;15.60;99.90
52889;DHT22;41413;52.770;6.892;2023-07-31T03:33:38;15.60;99.90
52889;DHT22;41413;52.770;6.892;2023-07-31T03:36:05;15.60;99.90
52889;DHT22;41413;52.770;6.892;2023-07-31T03:38:33;15.60;99.90
52889;DHT22;41413;52.770;6.892;2023-07-31T03:40:59;15.60;99.90
52889;DHT22;41413;52.770;6.892;2023-07-31T03:43:26;15.60;99.90
52889;DHT22;41413;52.770;6.892;2023-07-31T03:45:53;15.60;99.90
52889;DHT22;41413;52.770;6.892;2023-07-31T03:48:20;15.60;99.90
52889;DHT22;41413;52.770;6.892;2023-07-31T03:50:47;15.60;99.90
52889;DHT22;41413;52.770;6.892;2023-07-31T03:53:13;15.60;99.90
52889;DHT22;41413;52.770;6.892;2023-07-31T03:55:41;15.60;99.90
52889;DHT22;41413;52.770;6.892;2023-07-31T03:58:07;15.70;99.90
52889;DHT22;41413;52.770;6.892;2023-07-31T04:00:34;15.70;99.90
52889;DHT22;41413;52.770;6.892;2023-07-31T04:03:01;15.70;99.90
52889;DHT22;41413;52.770;6.892;2023-07-31T04:05:30;15.70;99.90
52889;DHT22;41413;52.770;6.892;2023-07-31T04:07:56;15.80;99.90
52889;DHT22;41413;52.770;6.892;2023-07-31T04:10:23;15.80;99.90
52889;DHT22;41413;52.770;6.892;2023-07-31T04:12:50;15.80;99.90
52889;DHT22;41413;52.770;6.892;2023-07-31T04:15:17;15.80;99.90
52889;DHT22;41413;52.770;6.892;2023-07-31T04:17:43;15.80;99.90
52889;DHT22;41413;52.770;6.892;2023-07-31T04:20:10;15.80;99.90
52889;DHT22;41413;52.770;6.892;2023-07-31T04:22:37;15.80;99.90
52889;DHT22;41413;52.770;6.892;2023-07-31T04:25:04;15.90;99.90
52889;DHT22;41413;52.770;6.892;2023-07-31T04:27:31;15.90;99.90
52889;DHT22;41413;52.770;6.892;2023-07-31T04:29:57;15.90;99.90
52889;DHT22;41413;52.770;6.892;2023-07-31T04:32:24;15.90;99.90
52889;DHT22;41413;52.770;6.892;2023-07-31T04:34:51;15.90;99.90
52889;DHT22;41413;52.770;6.892;2023-07-31T04:37:18;15.90;99.90
52889;DHT22;41413;52.770;6.892;2023-07-31T04:39:44;15.90;99.90
52889;DHT22;41413;52.770;6.892;2023-07-31T04:42:11;15.90;99.90
52889;DHT22;41413;52.770;6.892;2023-07-31T04:44:38;15.90;99.90
52889;DHT22;41413;52.770;6.892;2023-07-31T04:47:05;15.90;99.90
52889;DHT22;41413;52.770;6.892;2023-07-31T04:49:32;15.90;99.90
52889;DHT22;41413;52.770;6.892;2023-07-31T04:51:59;15.90;99.90
52889;DHT22;41413;52.770;6.892;2023-07-31T04:54:26;15.90;99.90
52889;DHT22;41413;52.770;6.892;2023-07-31T04:56:53;15.90;99.90
52889;DHT22;41413;52.770;6.892;2023-07-31T04:59:20;15.90;99.90
52889;DHT22;41413;52.770;6.892;2023-07-31T05:01:46;16.00;99.90
52889;DHT22;41413;52.770;6.892;2023-07-31T05:04:14;15.90;99.90
52889;DHT22;41413;52.770;6.892;2023-07-31T05:06:41;15.90;99.90
52889;DHT22;41413;52.770;6.892;2023-07-31T05:09:08;16.00;99.90
52889;DHT22;41413;52.770;6.892;2023-07-31T05:11:36;16.00;99.90
52889;DHT22;41413;52.770;6.892;2023-07-31T05:14:02;16.00;99.90
52889;DHT22;41413;52.770;6.892;2023-07-31T05:16:29;16.00;99.90
52889;DHT22;41413;52.770;6.892;2023-07-31T05:18:56;16.10;99.90
52889;DHT22;41413;52.770;6.892;2023-07-31T05:21:23;16.00;99.90
52889;DHT22;41413;52.770;6.892;2023-07-31T05:23:50;16.00;99.90
52889;DHT22;41413;52.770;6.892;2023-07-31T05:26:17;16.10;99.90
52889;DHT22;41413;52.770;6.892;2023-07-31T05:28:45;16.10;99.90
52889;DHT22;41413;52.770;6.892;2023-07-31T05:31:11;16.10;99.90
52889;DHT22;41413;52.770;6.892;2023-07-31T05:33:38;16.10;99.90
52889;DHT22;41413;52.770;6.892;2023-07-31T05:36:05;16.20;99.90
52889;DHT22;41413;52.770;6.892;2023-07-31T05:38:32;16.20;99.90
52889;DHT22;41413;52.770;6.892;2023-07-31T05:40:59;16.20;99.90
52889;DHT22;41413;52.770;6.892;2023-07-31T05:43:25;16.20;99.90
52889;DHT22;41413;52.770;6.892;2023-07-31T05:45:52;16.20;99.90
52889;DHT22;41413;52.770;6.892;2023-07-31T05:48:19;16.20;99.90
52889;DHT22;41413;52.770;6.892;2023-07-31T05:50:46;16.20;99.90
52889;DHT22;41413;52.770;6.892;2023-07-31T05:53:13;16.30;99.90
52889;DHT22;41413;52.770;6.892;2023-07-31T05:55:39;16.20;99.90
52889;DHT22;41413;52.770;6.892;2023-07-31T05:58:06;16.30;99.90
52889;DHT22;41413;52.770;6.892;2023-07-31T06:00:33;16.20;99.90
52889;DHT22;41413;52.770;6.892;2023-07-31T06:03:00;16.20;99.90
52889;DHT22;41413;52.770;6.892;2023-07-31T06:05:26;16.20;99.90
52889;DHT22;41413;52.770;6.892;2023-07-31T06:07:56;16.30;99.90
52889;DHT22;41413;52.770;6.892;2023-07-31T06:10:23;16.30;99.90
52889;DHT22;41413;52.770;6.892;2023-07-31T06:12:49;16.20;99.90
52889;DHT22;41413;52.770;6.892;2023-07-31T06:15:16;16.30;99.90
52889;DHT22;41413;52.770;6.892;2023-07-31T06:17:45;16.30;99.90
52889;DHT22;41413;52.770;6.892;2023-07-31T06:20:12;16.30;99.90
52889;DHT22;41413;52.770;6.892;2023-07-31T06:22:39;16.30;99.90
52889;DHT22;41413;52.770;6.892;2023-07-31T06:25:06;16.30;99.90
52889;DHT22;41413;52.770;6.892;2023-07-31T06:27:32;16.30;99.90
52889;DHT22;41413;52.770;6.892;2023-07-31T06:29:59;16.40;99.90
52889;DHT22;41413;52.770;6.892;2023-07-31T06:32:26;16.30;99.90
52889;DHT22;41413;52.770;6.892;2023-07-31T06:34:53;16.30;99.90
52889;DHT22;41413;52.770;6.892;2023-07-31T06:37:20;16.30;99.90
52889;DHT22;41413;52.770;6.892;2023-07-31T06:39:47;16.30;99.90
52889;DHT22;41413;52.770;6.892;2023-07-31T06:42:14;16.30;99.90
52889;DHT22;41413;52.770;6.892;2023-07-31T06:44:41;16.30;99.90
52889;DHT22;41413;52.770;6.892;2023-07-31T06:47:08;16.40;99.90
52889;DHT22;41413;52.770;6.892;2023-07-31T06:49:35;16.40;99.90
52889;DHT22;41413;52.770;6.892;2023-07-31T06:52:02;16.40;99.90
52889;DHT22;41413;52.770;6.892;2023-07-31T06:54:28;16.40;99.90
52889;DHT22;41413;52.770;6.892;2023-07-31T06:56:55;16.40;99.90
52889;DHT22;41413;52.770;6.892;2023-07-31T06:59:22;16.40;99.90
52889;DHT22;41413;52.770;6.892;2023-07-31T07:01:49;16.30;99.90
52889;DHT22;41413;52.770;6.892;2023-07-31T07:04:15;16.40;99.90
52889;DHT22;41413;52.770;6.892;2023-07-31T07:06:42;16.30;99.90
52889;DHT22;41413;52.770;6.892;2023-07-31T07:09:09;16.30;99.90
52889;DHT22;41413;52.770;6.892;2023-07-31T07:11:36;16.30;99.90
52889;DHT22;41413;52.770;6.892;2023-07-31T07:14:04;16.30;99.90
52889;DHT22;41413;52.770;6.892;2023-07-31T07:16:31;16.40;99.90
52889;DHT22;41413;52.770;6.892;2023-07-31T07:18:58;16.40;99.90
52889;DHT22;41413;52.770;6.892;2023-07-31T07:21:30;16.20;99.90
52889;DHT22;41413;52.770;6.892;2023-07-31T07:23:57;16.30;99.90
52889;DHT22;41413;52.770;6.892;2023-07-31T07:26:24;16.30;99.90
52889;DHT22;41413;52.770;6.892;2023-07-31T07:28:51;16.30;99.90
52889;DHT22;41413;52.770;6.892;2023-07-31T07:31:17;16.20;99.90
52889;DHT22;41413;52.770;6.892;2023-07-31T07:33:44;16.20;99.90
52889;DHT22;41413;52.770;6.892;2023-07-31T07:36:11;16.20;99.90
52889;DHT22;41413;52.770;6.892;2023-07-31T07:38:39;16.20;99.90
52889;DHT22;41413;52.770;6.892;2023-07-31T07:41:06;16.20;99.90
52889;DHT22;41413;52.770;6.892;2023-07-31T07:43:32;16.30;99.90
52889;DHT22;41413;52.770;6.892;2023-07-31T07:45:59;16.30;99.90
52889;DHT22;41413;52.770;6.892;2023-07-31T07:48:26;16.20;99.90
52889;DHT22;41413;52.770;6.892;2023-07-31T07:50:53;16.30;99.90
52889;DHT22;41413;52.770;6.892;2023-07-31T07:53:19;16.30;99.90
52889;DHT22;41413;52.770;6.892;2023-07-31T07:55:46;16.30;99.90
52889;DHT22;41413;52.770;6.892;2023-07-31T07:58:13;16.20;99.90
52889;DHT22;41413;52.770;6.892;2023-07-31T08:00:40;16.30;99.90
52889;DHT22;41413;52.770;6.892;2023-07-31T08:03:06;16.30;99.90
52889;DHT22;41413;52.770;6.892;2023-07-31T08:05:33;16.30;99.90
52889;DHT22;41413;52.770;6.892;2023-07-31T08:08:01;16.30;99.90
52889;DHT22;41413;52.770;6.892;2023-07-31T08:10:27;16.30;99.90
52889;DHT22;41413;52.770;6.892;2023-07-31T08:12:54;16.40;99.90
52889;DHT22;41413;52.770;6.892;2023-07-31T08:15:21;16.40;99.90
52889;DHT22;41413;52.770;6.892;2023-07-31T08:17:48;16.40;99.90
52889;DHT22;41413;52.770;6.892;2023-07-31T08:20:15;16.40;99.90
52889;DHT22;41413;52.770;6.892;2023-07-31T08:22:41;16.40;99.90
52889;DHT22;41413;52.770;6.892;2023-07-31T08:25:08;16.40;99.90
52889;DHT22;41413;52.770;6.892;2023-07-31T08:27:35;16.40;99.90
52889;DHT22;41413;52.770;6.892;2023-07-31T08:30:02;16.40;99.90
52889;DHT22;41413;52.770;6.892;2023-07-31T08:32:29;16.50;99.90
52889;DHT22;41413;52.770;6.892;2023-07-31T08:34:55;16.50;99.90
52889;DHT22;41413;52.770;6.892;2023-07-31T08:37:22;16.50;99.90
52889;DHT22;41413;52.770;6.892;2023-07-31T08:39:49;16.50;99.90
52889;DHT22;41413;52.770;6.892;2023-07-31T08:42:15;16.60;99.90
52889;DHT22;41413;52.770;6.892;2023-07-31T08:44:43;16.60;99.90
52889;DHT22;41413;52.770;6.892;2023-07-31T08:47:10;16.60;99.90
52889;DHT22;41413;52.770;6.892;2023-07-31T08:49:38;16.60;99.90
52889;DHT22;41413;52.770;6.892;2023-07-31T08:52:06;16.60;99.90
52889;DHT22;41413;52.770;6.892;2023-07-31T08:54:33;16.60;99.90
52889;DHT22;41413;52.770;6.892;2023-07-31T08:57:00;16.70;99.90
52889;DHT22;41413;52.770;6.892;2023-07-31T08:59:30;16.80;99.90
52889;DHT22;41413;52.770;6.892;2023-07-31T09:02:05;16.70;99.90
52889;DHT22;41413;52.770;6.892;2023-07-31T09:04:33;16.80;99.90
52889;DHT22;41413;52.770;6.892;2023-07-31T09:07:02;16.80;99.90
52889;DHT22;41413;52.770;6.892;2023-07-31T09:09:32;16.90;99.90
52889;DHT22;41413;52.770;6.892;2023-07-31T09:11:59;16.90;99.90
52889;DHT22;41413;52.770;6.892;2023-07-31T09:14:27;16.90;99.90
52889;DHT22;41413;52.770;6.892;2023-07-31T09:16:58;17.00;99.90
52889;DHT22;41413;52.770;6.892;2023-07-31T09:19:33;17.10;99.90
52889;DHT22;41413;52.770;6.892;2023-07-31T09:22:01;17.10;99.90
52889;DHT22;41413;52.770;6.892;2023-07-31T09:24:32;17.00;99.90
52889;DHT22;41413;52.770;6.892;2023-07-31T09:27:01;17.10;99.90
52889;DHT22;41413;52.770;6.892;2023-07-31T09:29:28;17.10;99.90
52889;DHT22;41413;52.770;6.892;2023-07-31T09:31:56;17.10;99.90
52889;DHT22;41413;52.770;6.892;2023-07-31T09:34:38;17.10;99.90
52889;DHT22;41413;52.770;6.892;2023-07-31T09:37:06;17.10;99.90
52889;DHT22;41413;52.770;6.892;2023-07-31T09:39:33;17.20;99.90
52889;DHT22;41413;52.770;6.892;2023-07-31T09:42:11;17.10;99.90
52889;DHT22;41413;52.770;6.892;2023-07-31T09:44:40;17.20;99.90
52889;DHT22;41413;52.770;6.892;2023-07-31T09:47:21;17.10;99.90
52889;DHT22;41413;52.770;6.892;2023-07-31T09:49:51;17.30;99.90
52889;DHT22;41413;52.770;6.892;2023-07-31T09:52:17;17.40;99.90
52889;DHT22;41413;52.770;6.892;2023-07-31T09:54:44;17.40;99.90
52889;DHT22;41413;52.770;6.892;2023-07-31T09:57:11;17.50;99.90
52889;DHT22;41413;52.770;6.892;2023-07-31T09:59:38;17.40;99.90
52889;DHT22;41413;52.770;6.892;2023-07-31T10:02:08;17.40;99.90
52889;DHT22;41413;52.770;6.892;2023-07-31T10:04:42;17.40;99.90
52889;DHT22;41413;52.770;6.892;2023-07-31T10:07:12;17.40;99.90
52889;DHT22;41413;52.770;6.892;2023-07-31T10:09:39;17.40;99.90
52889;DHT22;41413;52.770;6.892;2023-07-31T10:12:09;17.40;99.90
52889;DHT22;41413;52.770;6.892;2023-07-31T10:14:38;17.40;99.90
52889;DHT22;41413;52.770;6.892;2023-07-31T10:17:06;17.40;99.90
52889;DHT22;41413;52.770;6.892;2023-07-31T10:19:34;17.40;99.90
52889;DHT22;41413;52.770;6.892;2023-07-31T10:22:03;17.50;99.90
52889;DHT22;41413;52.770;6.892;2023-07-31T10:24:30;17.60;99.90
52889;DHT22;41413;52.770;6.892;2023-07-31T10:26:58;17.60;99.90
52889;DHT22;41413;52.770;6.892;2023-07-31T10:29:27;17.60;99.90
52889;DHT22;41413;52.770;6.892;2023-07-31T10:31:57;17.80;99.90
52889;DHT22;41413;52.770;6.892;2023-07-31T10:34:24;17.80;99.90
52889;DHT22;41413;52.770;6.892;2023-07-31T10:37:25;17.90;99.90
52889;DHT22;41413;52.770;6.892;2023-07-31T10:40:05;17.90;99.90
52889;DHT22;41413;52.770;6.892;2023-07-31T10:45:04;17.90;99.90
52889;DHT22;41413;52.770;6.892;2023-07-31T10:47:37;17.90;99.90
52889;DHT22;41413;52.770;6.892;2023-07-31T10:50:17;17.90;99.90
52889;DHT22;41413;52.770;6.892;2023-07-31T10:52:48;17.90;99.90
52889;DHT22;41413;52.770;6.892;2023-07-31T10:55:30;18.00;99.90
52889;DHT22;41413;52.770;6.892;2023-07-31T10:58:08;18.00;99.90
52889;DHT22;41413;52.770;6.892;2023-07-31T11:00:43;18.00;99.90
52889;DHT22;41413;52.770;6.892;2023-07-31T11:03:13;18.10;99.90
52889;DHT22;41413;52.770;6.892;2023-07-31T11:05:53;18.10;99.90
52889;DHT22;41413;52.770;6.892;2023-07-31T11:08:29;18.30;99.90
52889;DHT22;41413;52.770;6.892;2023-07-31T11:16:00;18.50;99.90
52889;DHT22;41413;52.770;6.892;2023-07-31T11:18:27;18.60;99.90
52889;DHT22;41413;52.770;6.892;2023-07-31T11:20:54;18.70;99.90
52889;DHT22;41413;52.770;6.892;2023-07-31T11:23:21;18.70;99.90
52889;DHT22;41413;52.770;6.892;2023-07-31T11:25:49;18.70;99.90
52889;DHT22;41413;52.770;6.892;2023-07-31T11:28:18;18.70;99.90
52889;DHT22;41413;52.770;6.892;2023-07-31T11:30:46;18.60;99.90
52889;DHT22;41413;52.770;6.892;2023-07-31T11:33:13;18.60;99.90
52889;DHT22;41413;52.770;6.892;2023-07-31T11:35:48;18.60;99.90
52889;DHT22;41413;52.770;6.892;2023-07-31T11:38:33;18.50;99.90
52889;DHT22;41413;52.770;6.892;2023-07-31T11:41:02;18.50;99.90
52889;DHT22;41413;52.770;6.892;2023-07-31T11:43:33;18.50;99.90
52889;DHT22;41413;52.770;6.892;2023-07-31T11:46:01;18.60;99.90
52889;DHT22;41413;52.770;6.892;2023-07-31T11:48:34;18.60;99.90
52889;DHT22;41413;52.770;6.892;2023-07-31T11:51:06;18.60;99.90
52889;DHT22;41413;52.770;6.892;2023-07-31T11:53:44;18.70;99.90
52889;DHT22;41413;52.770;6.892;2023-07-31T11:56:13;18.70;99.90
52889;DHT22;41413;52.770;6.892;2023-07-31T11:58:41;18.70;99.90
52889;DHT22;41413;52.770;6.892;2023-07-31T12:01:09;18.60;99.90
52889;DHT22;41413;52.770;6.892;2023-07-31T12:03:36;18.50;99.90
52889;DHT22;41413;52.770;6.892;2023-07-31T12:06:03;18.50;99.90
52889;DHT22;41413;52.770;6.892;2023-07-31T12:08:31;18.40;99.90
52889;DHT22;41413;52.770;6.892;2023-07-31T12:11:03;18.40;99.90
52889;DHT22;41413;52.770;6.892;2023-07-31T12:13:33;18.30;99.90
52889;DHT22;41413;52.770;6.892;2023-07-31T12:16:01;18.30;99.90
52889;DHT22;41413;52.770;6.892;2023-07-31T12:18:34;18.30;99.90
52889;DHT22;41413;52.770;6.892;2023-07-31T12:21:02;18.30;99.90
52889;DHT22;41413;52.770;6.892;2023-07-31T12:23:31;18.20;99.90
52889;DHT22;41413;52.770;6.892;2023-07-31T12:26:12;18.20;99.90
52889;DHT22;41413;52.770;6.892;2023-07-31T12:28:44;18.20;99.90
52889;DHT22;41413;52.770;6.892;2023-07-31T12:31:13;18.20;99.90
52889;DHT22;41413;52.770;6.892;2023-07-31T12:33:41;18.30;99.90
52889;DHT22;41413;52.770;6.892;2023-07-31T12:36:11;18.30;99.90
52889;DHT22;41413;52.770;6.892;2023-07-31T12:38:38;18.30;99.90
52889;DHT22;41413;52.770;6.892;2023-07-31T12:41:05;18.30;99.90
52889;DHT22;41413;52.770;6.892;2023-07-31T12:43:34;18.30;99.90
52889;DHT22;41413;52.770;6.892;2023-07-31T12:46:01;18.30;99.90
52889;DHT22;41413;52.770;6.892;2023-07-31T12:48:28;18.30;99.90
52889;DHT22;41413;52.770;6.892;2023-07-31T12:50:55;18.30;99.90
52889;DHT22;41413;52.770;6.892;2023-07-31T12:53:22;18.30;99.90
52889;DHT22;41413;52.770;6.892;2023-07-31T12:55:48;18.30;99.90
52889;DHT22;41413;52.770;6.892;2023-07-31T12:58:15;18.40;99.90
52889;DHT22;41413;52.770;6.892;2023-07-31T13:00:42;18.40;99.90
52889;DHT22;41413;52.770;6.892;2023-07-31T13:03:09;18.40;99.90
52889;DHT22;41413;52.770;6.892;2023-07-31T13:05:36;18.50;99.90
52889;DHT22;41413;52.770;6.892;2023-07-31T13:08:03;18.70;99.90
52889;DHT22;41413;52.770;6.892;2023-07-31T13:10:29;18.80;99.90
52889;DHT22;41413;52.770;6.892;2023-07-31T13:12:57;19.00;99.90
52889;DHT22;41413;52.770;6.892;2023-07-31T13:15:23;19.00;99.90
52889;DHT22;41413;52.770;6.892;2023-07-31T13:17:50;19.00;99.90
52889;DHT22;41413;52.770;6.892;2023-07-31T13:20:17;19.00;99.90
52889;DHT22;41413;52.770;6.892;2023-07-31T13:22:44;18.90;99.90
52889;DHT22;41413;52.770;6.892;2023-07-31T13:25:12;18.80;99.90
52889;DHT22;41413;52.770;6.892;2023-07-31T13:27:39;18.80;99.90
52889;DHT22;41413;52.770;6.892;2023-07-31T13:30:07;18.80;99.90
52889;DHT22;41413;52.770;6.892;2023-07-31T13:32:34;18.80;99.90
52889;DHT22;41413;52.770;6.892;2023-07-31T13:35:08;18.90;99.90
52889;DHT22;41413;52.770;6.892;2023-07-31T13:37:35;19.00;99.90
52889;DHT22;41413;52.770;6.892;2023-07-31T13:40:02;19.00;99.90
52889;DHT22;41413;52.770;6.892;2023-07-31T13:42:32;19.00;99.90
52889;DHT22;41413;52.770;6.892;2023-07-31T13:44:59;19.10;99.90
52889;DHT22;41413;52.770;6.892;2023-07-31T13:47:27;19.00;99.90
52889;DHT22;41413;52.770;6.892;2023-07-31T13:49:54;18.90;99.90
52889;DHT22;41413;52.770;6.892;2023-07-31T13:52:20;18.80;99.90
52889;DHT22;41413;52.770;6.892;2023-07-31T13:54:47;18.80;99.90
52889;DHT22;41413;52.770;6.892;2023-07-31T13:57:14;18.80;99.90
52889;DHT22;41413;52.770;6.892;2023-07-31T13:59:41;18.90;99.90
52889;DHT22;41413;52.770;6.892;2023-07-31T14:02:07;18.80;99.90
52889;DHT22;41413;52.770;6.892;2023-07-31T14:04:34;18.80;99.90
52889;DHT22;41413;52.770;6.892;2023-07-31T14:07:01;18.80;99.90
52889;DHT22;41413;52.770;6.892;2023-07-31T14:09:28;18.70;99.90
52889;DHT22;41413;52.770;6.892;2023-07-31T14:11:55;18.70;99.90
52889;DHT22;41413;52.770;6.892;2023-07-31T14:14:21;18.70;99.90
52889;DHT22;41413;52.770;6.892;2023-07-31T14:16:48;18.80;99.90
52889;DHT22;41413;52.770;6.892;2023-07-31T14:19:15;18.90;99.90
52889;DHT22;41413;52.770;6.892;2023-07-31T14:21:42;18.90;99.90
52889;DHT22;41413;52.770;6.892;2023-07-31T14:24:19;19.00;99.90
52889;DHT22;41413;52.770;6.892;2023-07-31T14:26:46;19.00;99.90
52889;DHT22;41413;52.770;6.892;2023-07-31T14:29:13;19.10;99.90
52889;DHT22;41413;52.770;6.892;2023-07-31T14:31:40;19.10;99.90
52889;DHT22;41413;52.770;6.892;2023-07-31T14:34:06;19.10;99.90
52889;DHT22;41413;52.770;6.892;2023-07-31T14:36:33;19.10;99.90
52889;DHT22;41413;52.770;6.892;2023-07-31T14:39:00;19.10;99.90
52889;DHT22;41413;52.770;6.892;2023-07-31T14:41:26;19.20;99.90
52889;DHT22;41413;52.770;6.892;2023-07-31T14:43:53;19.30;99.90
52889;DHT22;41413;52.770;6.892;2023-07-31T14:46:20;19.50;99.90
52889;DHT22;41413;52.770;6.892;2023-07-31T14:48:47;19.50;99.90
52889;DHT22;41413;52.770;6.892;2023-07-31T14:51:14;19.50;99.90
52889;DHT22;41413;52.770;6.892;2023-07-31T14:53:41;19.60;99.90
52889;DHT22;41413;52.770;6.892;2023-07-31T14:56:07;19.50;99.90
52889;DHT22;41413;52.770;6.892;2023-07-31T14:58:34;19.60;99.90
52889;DHT22;41413;52.770;6.892;2023-07-31T15:01:01;19.50;99.90
52889;DHT22;41413;52.770;6.892;2023-07-31T15:03:28;19.40;99.90
52889;DHT22;41413;52.770;6.892;2023-07-31T15:05:55;19.40;99.90
52889;DHT22;41413;52.770;6.892;2023-07-31T15:08:22;19.40;99.90
52889;DHT22;41413;52.770;6.892;2023-07-31T15:10:49;19.50;99.90
52889;DHT22;41413;52.770;6.892;2023-07-31T15:13:15;19.40;99.90
52889;DHT22;41413;52.770;6.892;2023-07-31T15:15:42;19.40;99.90
52889;DHT22;41413;52.770;6.892;2023-07-31T15:18:09;19.40;99.90
52889;DHT22;41413;52.770;6.892;2023-07-31T15:20:36;19.30;99.90
52889;DHT22;41413;52.770;6.892;2023-07-31T15:23:02;19.20;99.90
52889;DHT22;41413;52.770;6.892;2023-07-31T15:25:29;19.20;99.90
52889;DHT22;41413;52.770;6.892;2023-07-31T15:27:56;19.20;99.90
52889;DHT22;41413;52.770;6.892;2023-07-31T15:30:24;19.10;99.90
52889;DHT22;41413;52.770;6.892;2023-07-31T15:32:51;19.10;99.90
52889;DHT22;41413;52.770;6.892;2023-07-31T15:35:18;19.10;99.90
52889;DHT22;41413;52.770;6.892;2023-07-31T15:37:48;19.00;99.90
52889;DHT22;41413;52.770;6.892;2023-07-31T15:40:15;19.00;99.90
52889;DHT22;41413;52.770;6.892;2023-07-31T15:42:41;19.00;99.90
52889;DHT22;41413;52.770;6.892;2023-07-31T15:45:09;18.90;99.90
52889;DHT22;41413;52.770;6.892;2023-07-31T15:47:37;18.90;99.90